sensor_id;sensor_type;location;lat;lon;timestamp;P1;durP1;ratioP1;P2;durP2;ratioP2
46090;SDS011;31826;53.572;10.170;2024-02-28T00:02:10;15.77;;;8.85;;
46090;SDS011;31826;53.572;10.170;2024-02-28T00:04:36;15.50;;;8.55;;
46090;SDS011;31826;53.572;10.170;2024-02-28T00:07:01;16.35;;;8.05;;
46090;SDS011;31826;53.572;10.170;2024-02-28T00:09:27;14.82;;;8.05;;
46090;SDS011;31826;53.572;10.170;2024-02-28T00:11:53;14.03;;;7.77;;
46090;SDS011;31826;53.572;10.170;2024-02-28T00:14:18;14.07;;;7.53;;
46090;SDS011;31826;53.572;10.170;2024-02-28T00:16:44;14.43;;;7.83;;
46090;SDS011;31826;53.572;10.170;2024-02-28T00:19:11;15.68;;;7.95;;
46090;SDS011;31826;53.572;10.170;2024-02-28T00:21:38;14.15;;;8.18;;
46090;SDS011;31826;53.572;10.170;2024-02-28T00:24:04;14.32;;;7.80;;
46090;SDS011;31826;53.572;10.170;2024-02-28T00:26:31;17.05;;;7.95;;
46090;SDS011;31826;53.572;10.170;2024-02-28T00:28:56;16.00;;;8.45;;
46090;SDS011;31826;53.572;10.170;2024-02-28T00:31:22;15.70;;;8.23;;
46090;SDS011;31826;53.572;10.170;2024-02-28T00:33:48;16.42;;;8.73;;
46090;SDS011;31826;53.572;10.170;2024-02-28T00:36:14;16.20;;;8.63;;
46090;SDS011;31826;53.572;10.170;2024-02-28T00:38:42;15.73;;;8.95;;
46090;SDS011;31826;53.572;10.170;2024-02-28T00:41:08;15.38;;;8.68;;
46090;SDS011;31826;53.572;10.170;2024-02-28T00:43:33;16.70;;;8.90;;
46090;SDS011;31826;53.572;10.170;2024-02-28T00:45:59;14.52;;;8.40;;
46090;SDS011;31826;53.572;10.170;2024-02-28T00:48:25;14.48;;;8.40;;
46090;SDS011;31826;53.572;10.170;2024-02-28T00:50:51;15.40;;;8.40;;
46090;SDS011;31826;53.572;10.170;2024-02-28T00:53:18;16.20;;;8.80;;
46090;SDS011;31826;53.572;10.170;2024-02-28T00:55:45;22.00;;;8.95;;
46090;SDS011;31826;53.572;10.170;2024-02-28T00:58:10;16.20;;;8.77;;
46090;SDS011;31826;53.572;10.170;2024-02-28T01:00:36;16.08;;;9.23;;
46090;SDS011;31826;53.572;10.170;2024-02-28T01:03:02;17.42;;;9.20;;
46090;SDS011;31826;53.572;10.170;2024-02-28T01:05:33;18.08;;;9.05;;
46090;SDS011;31826;53.572;10.170;2024-02-28T01:07:59;18.02;;;9.43;;
46090;SDS011;31826;53.572;10.170;2024-02-28T01:10:25;20.17;;;10.00;;
46090;SDS011;31826;53.572;10.170;2024-02-28T01:12:51;17.70;;;9.53;;
46090;SDS011;31826;53.572;10.170;2024-02-28T01:15:17;17.25;;;9.27;;
46090;SDS011;31826;53.572;10.170;2024-02-28T01:17:43;17.02;;;9.85;;
46090;SDS011;31826;53.572;10.170;2024-02-28T01:20:09;20.60;;;9.88;;
46090;SDS011;31826;53.572;10.170;2024-02-28T01:22:35;21.08;;;10.63;;
46090;SDS011;31826;53.572;10.170;2024-02-28T01:25:02;20.13;;;10.82;;
46090;SDS011;31826;53.572;10.170;2024-02-28T01:27:28;21.83;;;11.10;;
46090;SDS011;31826;53.572;10.170;2024-02-28T01:29:54;21.77;;;11.27;;
46090;SDS011;31826;53.572;10.170;2024-02-28T01:32:19;18.47;;;10.40;;
46090;SDS011;31826;53.572;10.170;2024-02-28T01:34:45;19.57;;;10.63;;
46090;SDS011;31826;53.572;10.170;2024-02-28T01:37:11;20.90;;;11.48;;
46090;SDS011;31826;53.572;10.170;2024-02-28T01:39:37;22.88;;;12.13;;
46090;SDS011;31826;53.572;10.170;2024-02-28T01:42:03;24.98;;;13.45;;
46090;SDS011;31826;53.572;10.170;2024-02-28T01:44:29;24.83;;;12.02;;
46090;SDS011;31826;53.572;10.170;2024-02-28T01:46:55;22.50;;;11.65;;
46090;SDS011;31826;53.572;10.170;2024-02-28T01:49:22;22.23;;;11.90;;
46090;SDS011;31826;53.572;10.170;2024-02-28T01:51:48;22.35;;;12.40;;
46090;SDS011;31826;53.572;10.170;2024-02-28T01:54:15;27.35;;;12.35;;
46090;SDS011;31826;53.572;10.170;2024-02-28T01:56:43;24.73;;;12.85;;
46090;SDS011;31826;53.572;10.170;2024-02-28T01:59:09;22.73;;;12.30;;
46090;SDS011;31826;53.572;10.170;2024-02-28T02:01:36;22.48;;;12.02;;
46090;SDS011;31826;53.572;10.170;2024-02-28T02:04:03;23.25;;;12.45;;
46090;SDS011;31826;53.572;10.170;2024-02-28T02:06:29;24.77;;;12.27;;
46090;SDS011;31826;53.572;10.170;2024-02-28T02:08:56;21.95;;;12.27;;
46090;SDS011;31826;53.572;10.170;2024-02-28T02:11:22;23.27;;;12.30;;
46090;SDS011;31826;53.572;10.170;2024-02-28T02:13:53;25.63;;;12.88;;
46090;SDS011;31826;53.572;10.170;2024-02-28T02:16:19;25.07;;;13.33;;
46090;SDS011;31826;53.572;10.170;2024-02-28T02:18:51;24.45;;;12.23;;
46090;SDS011;31826;53.572;10.170;2024-02-28T02:21:23;24.75;;;12.75;;
46090;SDS011;31826;53.572;10.170;2024-02-28T02:23:51;24.70;;;12.07;;
46090;SDS011;31826;53.572;10.170;2024-02-28T02:26:17;26.63;;;12.98;;
46090;SDS011;31826;53.572;10.170;2024-02-28T02:28:43;27.85;;;13.43;;
46090;SDS011;31826;53.572;10.170;2024-02-28T02:31:10;25.50;;;13.45;;
46090;SDS011;31826;53.572;10.170;2024-02-28T02:33:36;27.50;;;14.00;;
46090;SDS011;31826;53.572;10.170;2024-02-28T02:36:02;26.83;;;13.43;;
46090;SDS011;31826;53.572;10.170;2024-02-28T02:38:28;25.83;;;13.80;;
46090;SDS011;31826;53.572;10.170;2024-02-28T02:40:53;28.02;;;14.55;;
46090;SDS011;31826;53.572;10.170;2024-02-28T02:43:19;27.77;;;14.40;;
46090;SDS011;31826;53.572;10.170;2024-02-28T02:45:45;27.73;;;13.33;;
46090;SDS011;31826;53.572;10.170;2024-02-28T02:48:11;31.23;;;14.60;;
46090;SDS011;31826;53.572;10.170;2024-02-28T02:50:37;31.83;;;14.65;;
46090;SDS011;31826;53.572;10.170;2024-02-28T02:53:03;29.33;;;14.40;;
46090;SDS011;31826;53.572;10.170;2024-02-28T02:55:29;31.02;;;14.88;;
46090;SDS011;31826;53.572;10.170;2024-02-28T02:57:55;30.63;;;14.70;;
46090;SDS011;31826;53.572;10.170;2024-02-28T03:00:21;30.83;;;15.13;;
46090;SDS011;31826;53.572;10.170;2024-02-28T03:02:47;31.20;;;14.27;;
46090;SDS011;31826;53.572;10.170;2024-02-28T03:05:12;31.67;;;14.57;;
46090;SDS011;31826;53.572;10.170;2024-02-28T03:07:38;28.83;;;14.63;;
46090;SDS011;31826;53.572;10.170;2024-02-28T03:10:04;30.15;;;14.98;;
46090;SDS011;31826;53.572;10.170;2024-02-28T03:12:30;28.42;;;13.75;;
46090;SDS011;31826;53.572;10.170;2024-02-28T03:14:56;29.60;;;14.07;;
46090;SDS011;31826;53.572;10.170;2024-02-28T03:17:22;27.90;;;13.83;;
46090;SDS011;31826;53.572;10.170;2024-02-28T03:19:47;31.27;;;14.68;;
46090;SDS011;31826;53.572;10.170;2024-02-28T03:22:13;29.85;;;14.05;;
46090;SDS011;31826;53.572;10.170;2024-02-28T03:24:39;32.97;;;15.90;;
46090;SDS011;31826;53.572;10.170;2024-02-28T03:27:05;32.88;;;14.77;;
46090;SDS011;31826;53.572;10.170;2024-02-28T03:29:30;33.95;;;15.75;;
46090;SDS011;31826;53.572;10.170;2024-02-28T03:31:58;32.17;;;15.82;;
46090;SDS011;31826;53.572;10.170;2024-02-28T03:34:24;33.67;;;15.13;;
46090;SDS011;31826;53.572;10.170;2024-02-28T03:36:50;32.55;;;14.93;;
46090;SDS011;31826;53.572;10.170;2024-02-28T03:39:16;30.98;;;14.43;;
46090;SDS011;31826;53.572;10.170;2024-02-28T03:41:41;32.42;;;14.57;;
46090;SDS011;31826;53.572;10.170;2024-02-28T03:44:07;29.85;;;14.20;;
46090;SDS011;31826;53.572;10.170;2024-02-28T03:46:33;30.13;;;14.32;;
46090;SDS011;31826;53.572;10.170;2024-02-28T03:48:59;30.52;;;13.75;;
46090;SDS011;31826;53.572;10.170;2024-02-28T03:51:25;30.55;;;14.07;;
46090;SDS011;31826;53.572;10.170;2024-02-28T03:53:50;35.53;;;15.98;;
46090;SDS011;31826;53.572;10.170;2024-02-28T03:56:22;34.45;;;15.77;;
46090;SDS011;31826;53.572;10.170;2024-02-28T03:58:51;34.15;;;14.98;;
46090;SDS011;31826;53.572;10.170;2024-02-28T04:01:18;32.78;;;14.93;;
46090;SDS011;31826;53.572;10.170;2024-02-28T04:03:44;32.70;;;15.33;;
46090;SDS011;31826;53.572;10.170;2024-02-28T04:06:10;34.33;;;15.47;;
46090;SDS011;31826;53.572;10.170;2024-02-28T04:08:36;33.75;;;14.38;;
46090;SDS011;31826;53.572;10.170;2024-02-28T04:11:02;33.35;;;15.27;;
46090;SDS011;31826;53.572;10.170;2024-02-28T04:13:28;34.03;;;15.18;;
46090;SDS011;31826;53.572;10.170;2024-02-28T04:15:54;34.63;;;15.67;;
46090;SDS011;31826;53.572;10.170;2024-02-28T04:18:19;34.58;;;15.23;;
46090;SDS011;31826;53.572;10.170;2024-02-28T04:20:45;34.35;;;15.20;;
46090;SDS011;31826;53.572;10.170;2024-02-28T04:23:10;33.85;;;15.30;;
46090;SDS011;31826;53.572;10.170;2024-02-28T04:25:36;34.10;;;14.70;;
46090;SDS011;31826;53.572;10.170;2024-02-28T04:28:05;31.50;;;14.30;;
46090;SDS011;31826;53.572;10.170;2024-02-28T04:30:32;28.77;;;13.80;;
46090;SDS011;31826;53.572;10.170;2024-02-28T04:32:57;33.53;;;15.23;;
46090;SDS011;31826;53.572;10.170;2024-02-28T04:35:23;33.37;;;15.00;;
46090;SDS011;31826;53.572;10.170;2024-02-28T04:37:49;34.20;;;15.13;;
46090;SDS011;31826;53.572;10.170;2024-02-28T04:40:15;35.47;;;14.43;;
46090;SDS011;31826;53.572;10.170;2024-02-28T04:42:41;34.47;;;15.03;;
46090;SDS011;31826;53.572;10.170;2024-02-28T04:45:08;34.97;;;14.80;;
46090;SDS011;31826;53.572;10.170;2024-02-28T04:47:34;33.95;;;14.38;;
46090;SDS011;31826;53.572;10.170;2024-02-28T04:50:00;32.53;;;14.70;;
46090;SDS011;31826;53.572;10.170;2024-02-28T04:52:25;35.05;;;14.18;;
46090;SDS011;31826;53.572;10.170;2024-02-28T04:54:52;30.63;;;14.00;;
46090;SDS011;31826;53.572;10.170;2024-02-28T04:57:18;30.60;;;13.68;;
46090;SDS011;31826;53.572;10.170;2024-02-28T04:59:44;34.47;;;14.30;;
46090;SDS011;31826;53.572;10.170;2024-02-28T05:02:10;31.77;;;13.35;;
46090;SDS011;31826;53.572;10.170;2024-02-28T05:04:36;35.50;;;14.77;;
46090;SDS011;31826;53.572;10.170;2024-02-28T05:07:01;29.35;;;13.82;;
46090;SDS011;31826;53.572;10.170;2024-02-28T05:09:27;31.45;;;13.15;;
46090;SDS011;31826;53.572;10.170;2024-02-28T05:11:53;33.88;;;15.30;;
46090;SDS011;31826;53.572;10.170;2024-02-28T05:14:19;31.98;;;14.35;;
46090;SDS011;31826;53.572;10.170;2024-02-28T05:16:46;31.83;;;13.70;;
46090;SDS011;31826;53.572;10.170;2024-02-28T05:19:12;29.40;;;13.73;;
46090;SDS011;31826;53.572;10.170;2024-02-28T05:21:41;30.90;;;13.77;;
46090;SDS011;31826;53.572;10.170;2024-02-28T05:24:07;31.45;;;13.35;;
46090;SDS011;31826;53.572;10.170;2024-02-28T05:26:36;31.17;;;13.50;;
46090;SDS011;31826;53.572;10.170;2024-02-28T05:29:03;33.20;;;14.10;;
46090;SDS011;31826;53.572;10.170;2024-02-28T05:31:30;30.73;;;13.40;;
46090;SDS011;31826;53.572;10.170;2024-02-28T05:33:59;30.92;;;13.30;;
46090;SDS011;31826;53.572;10.170;2024-02-28T05:36:27;30.63;;;13.68;;
46090;SDS011;31826;53.572;10.170;2024-02-28T05:38:54;30.83;;;14.00;;
46090;SDS011;31826;53.572;10.170;2024-02-28T05:41:21;32.40;;;13.93;;
46090;SDS011;31826;53.572;10.170;2024-02-28T05:43:47;30.70;;;13.87;;
46090;SDS011;31826;53.572;10.170;2024-02-28T05:46:14;32.10;;;13.85;;
46090;SDS011;31826;53.572;10.170;2024-02-28T05:48:40;28.38;;;13.05;;
46090;SDS011;31826;53.572;10.170;2024-02-28T05:51:06;32.42;;;13.85;;
46090;SDS011;31826;53.572;10.170;2024-02-28T05:53:32;32.10;;;14.10;;
46090;SDS011;31826;53.572;10.170;2024-02-28T05:56:07;29.75;;;13.30;;
46090;SDS011;31826;53.572;10.170;2024-02-28T05:58:42;30.55;;;13.30;;
46090;SDS011;31826;53.572;10.170;2024-02-28T06:01:09;31.05;;;14.00;;
46090;SDS011;31826;53.572;10.170;2024-02-28T06:03:38;28.25;;;12.88;;
46090;SDS011;31826;53.572;10.170;2024-02-28T06:06:04;30.83;;;14.40;;
46090;SDS011;31826;53.572;10.170;2024-02-28T06:08:48;29.33;;;13.23;;
46090;SDS011;31826;53.572;10.170;2024-02-28T06:11:14;31.30;;;13.25;;
46090;SDS011;31826;53.572;10.170;2024-02-28T06:13:40;26.50;;;12.55;;
46090;SDS011;31826;53.572;10.170;2024-02-28T06:16:06;27.47;;;12.87;;
46090;SDS011;31826;53.572;10.170;2024-02-28T06:18:32;26.13;;;11.60;;
46090;SDS011;31826;53.572;10.170;2024-02-28T06:20:58;24.17;;;11.60;;
46090;SDS011;31826;53.572;10.170;2024-02-28T06:23:25;25.02;;;11.48;;
46090;SDS011;31826;53.572;10.170;2024-02-28T06:25:51;23.42;;;11.25;;
46090;SDS011;31826;53.572;10.170;2024-02-28T06:28:17;25.73;;;11.02;;
46090;SDS011;31826;53.572;10.170;2024-02-28T06:30:43;24.10;;;10.63;;
46090;SDS011;31826;53.572;10.170;2024-02-28T06:33:12;24.63;;;10.77;;
46090;SDS011;31826;53.572;10.170;2024-02-28T06:35:38;21.88;;;10.82;;
46090;SDS011;31826;53.572;10.170;2024-02-28T06:38:04;22.87;;;10.73;;
46090;SDS011;31826;53.572;10.170;2024-02-28T06:40:29;23.35;;;10.73;;
46090;SDS011;31826;53.572;10.170;2024-02-28T06:42:55;24.47;;;11.20;;
46090;SDS011;31826;53.572;10.170;2024-02-28T06:45:21;23.90;;;10.70;;
46090;SDS011;31826;53.572;10.170;2024-02-28T06:47:46;21.02;;;9.98;;
46090;SDS011;31826;53.572;10.170;2024-02-28T06:50:13;23.45;;;10.65;;
46090;SDS011;31826;53.572;10.170;2024-02-28T06:52:39;22.85;;;11.27;;
46090;SDS011;31826;53.572;10.170;2024-02-28T06:55:06;23.88;;;10.73;;
46090;SDS011;31826;53.572;10.170;2024-02-28T06:57:36;24.60;;;10.60;;
46090;SDS011;31826;53.572;10.170;2024-02-28T07:00:05;22.95;;;10.50;;
46090;SDS011;31826;53.572;10.170;2024-02-28T07:02:39;20.35;;;9.35;;
46090;SDS011;31826;53.572;10.170;2024-02-28T07:05:05;22.43;;;10.53;;
46090;SDS011;31826;53.572;10.170;2024-02-28T07:07:32;22.63;;;9.68;;
46090;SDS011;31826;53.572;10.170;2024-02-28T07:09:58;22.85;;;10.50;;
46090;SDS011;31826;53.572;10.170;2024-02-28T07:12:23;20.87;;;10.03;;
46090;SDS011;31826;53.572;10.170;2024-02-28T07:14:50;21.43;;;9.83;;
46090;SDS011;31826;53.572;10.170;2024-02-28T07:17:16;23.77;;;10.52;;
46090;SDS011;31826;53.572;10.170;2024-02-28T07:19:41;25.27;;;10.68;;
46090;SDS011;31826;53.572;10.170;2024-02-28T07:22:07;22.55;;;10.43;;
46090;SDS011;31826;53.572;10.170;2024-02-28T07:24:33;22.85;;;11.25;;
46090;SDS011;31826;53.572;10.170;2024-02-28T07:26:59;24.33;;;10.90;;
46090;SDS011;31826;53.572;10.170;2024-02-28T07:29:24;21.35;;;9.60;;
46090;SDS011;31826;53.572;10.170;2024-02-28T07:31:50;24.90;;;10.85;;
46090;SDS011;31826;53.572;10.170;2024-02-28T07:34:16;21.95;;;10.32;;
46090;SDS011;31826;53.572;10.170;2024-02-28T07:36:41;23.13;;;10.20;;
46090;SDS011;31826;53.572;10.170;2024-02-28T07:39:07;24.77;;;10.70;;
46090;SDS011;31826;53.572;10.170;2024-02-28T07:41:37;24.45;;;10.15;;
46090;SDS011;31826;53.572;10.170;2024-02-28T07:44:06;21.92;;;10.10;;
46090;SDS011;31826;53.572;10.170;2024-02-28T07:46:33;21.05;;;10.55;;
46090;SDS011;31826;53.572;10.170;2024-02-28T07:48:59;23.10;;;10.35;;
46090;SDS011;31826;53.572;10.170;2024-02-28T07:51:26;22.50;;;10.55;;
46090;SDS011;31826;53.572;10.170;2024-02-28T07:53:51;23.60;;;10.45;;
46090;SDS011;31826;53.572;10.170;2024-02-28T07:56:17;23.90;;;11.17;;
46090;SDS011;31826;53.572;10.170;2024-02-28T07:58:44;21.35;;;10.13;;
46090;SDS011;31826;53.572;10.170;2024-02-28T08:01:10;22.63;;;10.87;;
46090;SDS011;31826;53.572;10.170;2024-02-28T08:03:36;22.08;;;9.82;;
46090;SDS011;31826;53.572;10.170;2024-02-28T08:06:02;23.90;;;11.15;;
46090;SDS011;31826;53.572;10.170;2024-02-28T08:08:28;21.03;;;9.60;;
46090;SDS011;31826;53.572;10.170;2024-02-28T08:10:54;22.50;;;9.73;;
46090;SDS011;31826;53.572;10.170;2024-02-28T08:13:20;21.60;;;9.60;;
46090;SDS011;31826;53.572;10.170;2024-02-28T08:15:46;21.13;;;10.10;;
46090;SDS011;31826;53.572;10.170;2024-02-28T08:18:11;22.17;;;10.17;;
46090;SDS011;31826;53.572;10.170;2024-02-28T08:20:37;21.23;;;9.80;;
46090;SDS011;31826;53.572;10.170;2024-02-28T08:23:04;21.30;;;10.07;;
46090;SDS011;31826;53.572;10.170;2024-02-28T08:25:30;19.70;;;8.95;;
46090;SDS011;31826;53.572;10.170;2024-02-28T08:27:56;22.20;;;9.68;;
46090;SDS011;31826;53.572;10.170;2024-02-28T08:30:22;23.55;;;9.68;;
46090;SDS011;31826;53.572;10.170;2024-02-28T08:32:48;23.27;;;10.93;;
46090;SDS011;31826;53.572;10.170;2024-02-28T08:35:14;23.92;;;9.85;;
46090;SDS011;31826;53.572;10.170;2024-02-28T08:37:39;21.90;;;10.65;;
46090;SDS011;31826;53.572;10.170;2024-02-28T08:40:06;21.17;;;10.03;;
46090;SDS011;31826;53.572;10.170;2024-02-28T08:42:33;22.42;;;10.25;;
46090;SDS011;31826;53.572;10.170;2024-02-28T08:44:59;20.27;;;9.97;;
46090;SDS011;31826;53.572;10.170;2024-02-28T08:47:25;22.38;;;10.27;;
46090;SDS011;31826;53.572;10.170;2024-02-28T08:49:52;23.73;;;10.00;;
46090;SDS011;31826;53.572;10.170;2024-02-28T08:52:18;23.20;;;10.77;;
46090;SDS011;31826;53.572;10.170;2024-02-28T08:54:45;26.30;;;12.00;;
46090;SDS011;31826;53.572;10.170;2024-02-28T08:57:11;24.27;;;11.20;;
46090;SDS011;31826;53.572;10.170;2024-02-28T08:59:37;26.35;;;10.85;;
46090;SDS011;31826;53.572;10.170;2024-02-28T09:02:03;25.23;;;11.43;;
46090;SDS011;31826;53.572;10.170;2024-02-28T09:04:29;24.25;;;10.95;;
46090;SDS011;31826;53.572;10.170;2024-02-28T09:06:54;25.38;;;11.90;;
46090;SDS011;31826;53.572;10.170;2024-02-28T09:09:20;25.70;;;12.13;;
46090;SDS011;31826;53.572;10.170;2024-02-28T09:11:46;24.73;;;11.30;;
46090;SDS011;31826;53.572;10.170;2024-02-28T09:14:11;28.70;;;13.32;;
46090;SDS011;31826;53.572;10.170;2024-02-28T09:16:37;25.50;;;11.83;;
46090;SDS011;31826;53.572;10.170;2024-02-28T09:19:03;24.40;;;11.97;;
46090;SDS011;31826;53.572;10.170;2024-02-28T09:21:29;25.88;;;11.57;;
46090;SDS011;31826;53.572;10.170;2024-02-28T09:23:55;24.08;;;11.50;;
46090;SDS011;31826;53.572;10.170;2024-02-28T09:26:21;25.95;;;12.48;;
46090;SDS011;31826;53.572;10.170;2024-02-28T09:28:46;28.83;;;13.73;;
46090;SDS011;31826;53.572;10.170;2024-02-28T09:31:12;25.13;;;11.77;;
46090;SDS011;31826;53.572;10.170;2024-02-28T09:33:37;28.53;;;13.90;;
46090;SDS011;31826;53.572;10.170;2024-02-28T09:36:04;27.87;;;12.60;;
46090;SDS011;31826;53.572;10.170;2024-02-28T09:38:30;29.70;;;13.45;;
46090;SDS011;31826;53.572;10.170;2024-02-28T09:40:57;27.92;;;13.75;;
46090;SDS011;31826;53.572;10.170;2024-02-28T09:45:58;29.05;;;13.52;;
46090;SDS011;31826;53.572;10.170;2024-02-28T09:48:28;27.63;;;13.27;;
46090;SDS011;31826;53.572;10.170;2024-02-28T09:50:55;28.98;;;13.18;;
46090;SDS011;31826;53.572;10.170;2024-02-28T09:53:22;30.15;;;14.50;;
46090;SDS011;31826;53.572;10.170;2024-02-28T09:55:48;29.40;;;13.98;;
46090;SDS011;31826;53.572;10.170;2024-02-28T09:58:15;28.53;;;13.70;;
46090;SDS011;31826;53.572;10.170;2024-02-28T10:00:42;30.75;;;14.07;;
46090;SDS011;31826;53.572;10.170;2024-02-28T10:03:10;28.52;;;13.77;;
46090;SDS011;31826;53.572;10.170;2024-02-28T10:05:38;32.58;;;15.63;;
46090;SDS011;31826;53.572;10.170;2024-02-28T10:08:05;28.60;;;14.15;;
46090;SDS011;31826;53.572;10.170;2024-02-28T10:10:31;32.05;;;15.18;;
46090;SDS011;31826;53.572;10.170;2024-02-28T10:12:57;29.77;;;14.77;;
46090;SDS011;31826;53.572;10.170;2024-02-28T10:15:26;31.30;;;14.90;;
46090;SDS011;31826;53.572;10.170;2024-02-28T10:17:52;28.57;;;13.17;;
46090;SDS011;31826;53.572;10.170;2024-02-28T10:20:18;34.43;;;14.63;;
46090;SDS011;31826;53.572;10.170;2024-02-28T10:22:44;28.27;;;13.05;;
46090;SDS011;31826;53.572;10.170;2024-02-28T10:25:10;25.65;;;13.40;;
46090;SDS011;31826;53.572;10.170;2024-02-28T10:27:36;29.42;;;14.50;;
46090;SDS011;31826;53.572;10.170;2024-02-28T10:30:02;27.80;;;13.48;;
46090;SDS011;31826;53.572;10.170;2024-02-28T10:32:30;27.77;;;13.05;;
46090;SDS011;31826;53.572;10.170;2024-02-28T10:34:57;26.85;;;12.93;;
46090;SDS011;31826;53.572;10.170;2024-02-28T10:37:24;25.75;;;12.50;;
46090;SDS011;31826;53.572;10.170;2024-02-28T10:39:51;28.98;;;12.75;;
46090;SDS011;31826;53.572;10.170;2024-02-28T10:42:18;25.30;;;12.32;;
46090;SDS011;31826;53.572;10.170;2024-02-28T10:44:45;26.83;;;12.68;;
46090;SDS011;31826;53.572;10.170;2024-02-28T10:47:16;25.85;;;12.70;;
46090;SDS011;31826;53.572;10.170;2024-02-28T10:49:43;24.33;;;12.05;;
46090;SDS011;31826;53.572;10.170;2024-02-28T10:52:11;24.85;;;12.13;;
46090;SDS011;31826;53.572;10.170;2024-02-28T10:54:40;26.83;;;12.63;;
46090;SDS011;31826;53.572;10.170;2024-02-28T10:57:09;26.97;;;13.13;;
46090;SDS011;31826;53.572;10.170;2024-02-28T10:59:38;25.90;;;11.82;;
46090;SDS011;31826;53.572;10.170;2024-02-28T11:02:05;23.40;;;11.37;;
46090;SDS011;31826;53.572;10.170;2024-02-28T11:04:31;24.55;;;11.75;;
46090;SDS011;31826;53.572;10.170;2024-02-28T11:06:57;23.40;;;11.30;;
46090;SDS011;31826;53.572;10.170;2024-02-28T11:09:23;22.92;;;11.77;;
46090;SDS011;31826;53.572;10.170;2024-02-28T11:11:51;23.48;;;11.23;;
46090;SDS011;31826;53.572;10.170;2024-02-28T11:14:17;24.25;;;12.40;;
46090;SDS011;31826;53.572;10.170;2024-02-28T11:16:47;24.25;;;11.23;;
46090;SDS011;31826;53.572;10.170;2024-02-28T11:19:24;22.17;;;10.13;;
46090;SDS011;31826;53.572;10.170;2024-02-28T11:21:55;19.83;;;10.00;;
46090;SDS011;31826;53.572;10.170;2024-02-28T11:24:27;22.73;;;10.30;;
46090;SDS011;31826;53.572;10.170;2024-02-28T11:26:57;23.80;;;10.82;;
46090;SDS011;31826;53.572;10.170;2024-02-28T11:29:26;23.52;;;10.98;;
46090;SDS011;31826;53.572;10.170;2024-02-28T11:31:53;24.83;;;11.98;;
46090;SDS011;31826;53.572;10.170;2024-02-28T11:34:19;23.48;;;11.23;;
46090;SDS011;31826;53.572;10.170;2024-02-28T11:36:49;23.27;;;11.82;;
46090;SDS011;31826;53.572;10.170;2024-02-28T11:39:15;21.35;;;10.80;;
46090;SDS011;31826;53.572;10.170;2024-02-28T11:41:42;27.08;;;12.07;;
46090;SDS011;31826;53.572;10.170;2024-02-28T11:44:15;26.38;;;11.65;;
46090;SDS011;31826;53.572;10.170;2024-02-28T11:46:44;22.95;;;11.48;;
46090;SDS011;31826;53.572;10.170;2024-02-28T11:49:11;22.80;;;11.27;;
46090;SDS011;31826;53.572;10.170;2024-02-28T11:51:39;22.60;;;11.10;;
46090;SDS011;31826;53.572;10.170;2024-02-28T11:54:06;22.10;;;10.57;;
46090;SDS011;31826;53.572;10.170;2024-02-28T11:56:32;23.70;;;11.60;;
46090;SDS011;31826;53.572;10.170;2024-02-28T11:58:58;23.33;;;11.43;;
46090;SDS011;31826;53.572;10.170;2024-02-28T12:01:42;28.40;;;11.80;;
46090;SDS011;31826;53.572;10.170;2024-02-28T12:04:11;23.70;;;11.85;;
46090;SDS011;31826;53.572;10.170;2024-02-28T12:06:38;24.60;;;12.05;;
46090;SDS011;31826;53.572;10.170;2024-02-28T12:09:07;25.42;;;12.05;;
46090;SDS011;31826;53.572;10.170;2024-02-28T12:11:35;23.67;;;11.48;;
46090;SDS011;31826;53.572;10.170;2024-02-28T12:14:04;23.40;;;11.13;;
46090;SDS011;31826;53.572;10.170;2024-02-28T12:16:34;20.53;;;9.37;;
46090;SDS011;31826;53.572;10.170;2024-02-28T12:19:03;19.65;;;8.75;;
46090;SDS011;31826;53.572;10.170;2024-02-28T12:21:32;22.08;;;9.20;;
46090;SDS011;31826;53.572;10.170;2024-02-28T12:23:57;19.10;;;8.95;;
46090;SDS011;31826;53.572;10.170;2024-02-28T12:26:23;22.42;;;9.50;;
46090;SDS011;31826;53.572;10.170;2024-02-28T12:28:49;19.17;;;9.07;;
46090;SDS011;31826;53.572;10.170;2024-02-28T12:31:14;19.47;;;9.33;;
46090;SDS011;31826;53.572;10.170;2024-02-28T12:33:40;20.80;;;9.33;;
46090;SDS011;31826;53.572;10.170;2024-02-28T12:36:07;20.38;;;9.07;;
46090;SDS011;31826;53.572;10.170;2024-02-28T12:38:33;22.58;;;9.55;;
46090;SDS011;31826;53.572;10.170;2024-02-28T12:40:59;22.45;;;10.55;;
46090;SDS011;31826;53.572;10.170;2024-02-28T12:43:25;25.47;;;10.63;;
46090;SDS011;31826;53.572;10.170;2024-02-28T12:45:50;26.40;;;11.30;;
46090;SDS011;31826;53.572;10.170;2024-02-28T12:48:16;21.63;;;10.18;;
46090;SDS011;31826;53.572;10.170;2024-02-28T12:50:44;25.33;;;10.30;;
46090;SDS011;31826;53.572;10.170;2024-02-28T12:53:09;21.88;;;9.65;;
46090;SDS011;31826;53.572;10.170;2024-02-28T12:55:35;23.77;;;10.67;;
46090;SDS011;31826;53.572;10.170;2024-02-28T12:58:01;25.50;;;10.60;;
46090;SDS011;31826;53.572;10.170;2024-02-28T13:00:29;22.50;;;10.15;;
46090;SDS011;31826;53.572;10.170;2024-02-28T13:02:55;22.90;;;10.43;;
46090;SDS011;31826;53.572;10.170;2024-02-28T13:05:21;22.80;;;10.93;;
46090;SDS011;31826;53.572;10.170;2024-02-28T13:07:46;21.95;;;10.13;;
46090;SDS011;31826;53.572;10.170;2024-02-28T13:10:12;22.35;;;10.15;;
46090;SDS011;31826;53.572;10.170;2024-02-28T13:12:38;21.60;;;9.70;;
46090;SDS011;31826;53.572;10.170;2024-02-28T13:15:04;22.70;;;10.00;;
46090;SDS011;31826;53.572;10.170;2024-02-28T13:17:31;21.88;;;10.40;;
46090;SDS011;31826;53.572;10.170;2024-02-28T13:19:56;24.13;;;11.07;;
46090;SDS011;31826;53.572;10.170;2024-02-28T13:22:22;22.60;;;10.43;;
46090;SDS011;31826;53.572;10.170;2024-02-28T13:24:48;24.77;;;11.30;;
46090;SDS011;31826;53.572;10.170;2024-02-28T13:27:13;24.35;;;11.38;;
46090;SDS011;31826;53.572;10.170;2024-02-28T13:29:39;24.35;;;10.48;;
46090;SDS011;31826;53.572;10.170;2024-02-28T13:32:05;27.83;;;11.05;;
46090;SDS011;31826;53.572;10.170;2024-02-28T13:34:30;23.27;;;10.90;;
46090;SDS011;31826;53.572;10.170;2024-02-28T13:36:56;23.33;;;10.70;;
46090;SDS011;31826;53.572;10.170;2024-02-28T13:39:23;26.95;;;11.23;;
46090;SDS011;31826;53.572;10.170;2024-02-28T13:41:51;23.97;;;11.27;;
46090;SDS011;31826;53.572;10.170;2024-02-28T13:44:17;25.60;;;11.45;;
46090;SDS011;31826;53.572;10.170;2024-02-28T13:46:46;22.67;;;10.65;;
46090;SDS011;31826;53.572;10.170;2024-02-28T13:49:13;22.00;;;10.43;;
46090;SDS011;31826;53.572;10.170;2024-02-28T13:51:39;22.87;;;10.13;;
46090;SDS011;31826;53.572;10.170;2024-02-28T13:54:05;21.97;;;9.93;;
46090;SDS011;31826;53.572;10.170;2024-02-28T13:56:31;21.80;;;10.70;;
46090;SDS011;31826;53.572;10.170;2024-02-28T13:58:57;22.93;;;9.87;;
46090;SDS011;31826;53.572;10.170;2024-02-28T14:01:22;23.23;;;9.87;;
46090;SDS011;31826;53.572;10.170;2024-02-28T14:03:49;22.02;;;10.27;;
46090;SDS011;31826;53.572;10.170;2024-02-28T14:06:14;22.88;;;10.10;;
46090;SDS011;31826;53.572;10.170;2024-02-28T14:08:40;21.02;;;9.82;;
46090;SDS011;31826;53.572;10.170;2024-02-28T14:11:06;19.03;;;9.00;;